MapTableWeb Map

Choose a state:
Locations above flood stage
(83 streamgages are currently reporting water levels above the National Weather Service defined flood stage)
USGS
station
ID
USGS station name NWS
flood
stage
(ft)
Most recent
stage
(ft)
Most recent
flow
(cfs)
Historical
peaks
(cfs)
Most recent
local
date/time
NWS
station
ID
10325000HUMBOLDT RV AT BATTLE MOUNTAIN, NV 9.5 9.66 2,510 8,880 2017-04-29 13:15:00 HBMN2
10327500HUMBOLDT RV AT COMUS, NV 9.5 10.56 3,330 9,900 2017-04-29 13:15:00 CMSN2
13075500PORTNEUF RIVER AT POCATELLO ID 8.5 9.69 1,010 2,990 2017-04-29 14:45:00 PIHI1
13206000BOISE RIVER AT GLENWOOD BRIDGE NR BOISE ID 10 11.15 8,640 13,000 2017-04-29 14:45:00 BIGI1
10333000HUMBOLDT RV NR IMLAY, NV 10.3 10.87 1,830 9,270 2017-04-29 13:15:00 HRIN2
10312275CARSON RV AT TARZYN RD NR FALLON, NV 9.1 9.66 1,010 942 2017-04-29 13:15:00 TRZN2
07072500Black River at Black Rock, AR 14 22.81 37,900 190,000 2017-04-29 15:00:00 BKRA4
07074850White River near Augusta, AR 26 31.15 47,100 262,000 2017-04-29 15:00:00 AUGA4
07069000Black River at Pocahontas, AR 17 20.75 21,100 86,600 2017-04-29 15:00:00 POCA4
02082585TAR RIVER AT NC 97 AT ROCKY MOUNT, NC 21 23.30 11,400 34,100 2017-04-29 17:00:00 ROKN7
02091500CONTENTNEA CREEK AT HOOKERTON, NC 13 19.74 13,600 31,900 2017-04-29 16:00:00 HOKN7
02083000FISHING CREEK NEAR ENFIELD, NC 16 16.23 4,550 30,100 2017-04-29 17:00:00 EFDN7
05501600Mississippi River at Hannibal, MO 16 16.85

 

  2017-04-29 15:00:00 HNNM7
02171700SANTEE RIVER NR JAMESTOWN, SC 10 12.85 19,600 96,400 2017-04-29 15:30:00 JAMS1
02108000NORTHEAST CAPE FEAR RIVER NEAR CHINQUAPIN, NC 13 13.72 5,310 30,700 2017-04-29 16:30:00 CHIN7
07066510Current River above Powder Mill, MO 6 17.84

 

2017-04-29 15:45:00 PWDM7
06918250Osage River at Taberville, MO 21 22.87 15,100 42,100 2017-04-29 15:45:00 TBVM7
02131000PEE DEE RIVER AT PEEDEE, SC 19 21.66 24,100 220,000 2017-04-29 16:00:00 PDES1
10338000TRUCKEE R NR TRUCKEE CA 4.5 4.75 2,500 11,900 2017-04-29 13:30:00 TRCC1
02083500TAR RIVER AT TARBORO, NC 19 27.02 18,300 70,600 2017-04-29 16:15:00 TARN7
02084000TAR RIVER AT GREENVILLE, NC 13 16.69 20,500 73,000 2017-04-29 17:00:00 PGVN7
02089000NEUSE RIVER NEAR GOLDSBORO, NC 18 24.20 21,700 38,600 2017-04-29 16:15:00 GLDN7
02080500ROANOKE RIVER AT ROANOKE RAPIDS, NC 9 10.65 36,000 261,000 2017-04-29 16:45:00 RRDN7
02089500NEUSE RIVER AT KINSTON, NC 14 16.06 9,660 39,000 2017-04-29 16:30:00 KINN7
02175000EDISTO RIVER NR GIVHANS, SC 10 10.59 6,260 26,600 2017-04-29 15:00:00 GIVS1
07052820Flat Creek below Jenkins, MO 7 21.02 21,400 33,400 2017-04-29 16:00:00 FCRM7
07106000FOUNTAIN CREEK NEAR FOUNTAIN, CO. 8 8.18 Bkw 22,100 2017-04-29 14:00:00 FHAC2
05587450Mississippi River at Grafton, IL 18 18.80

 

598,000 2017-04-29 16:00:00 GRFI2
07188838Little Sugar Creek near Pineville, MO 6 19.44 17,900 26,500 2017-04-29 15:15:00 LSGM7
07188653Big Sugar Creek near Powell, MO 10 16.21 11,700 30,900 2017-04-29 15:15:00 BSGM7
07035000Little St. Francis River at Fredericktown, MO 14 21.14 12,500 25,100 2017-04-29 16:00:00 FRZM7
07061500Black River near Annapolis, MO 8 15.47 24,000 109,000 2017-04-29 15:15:00 ANNM7
07064440Current River at Montauk State Park, MO 7 9.59 5,390 6,550 2017-04-29 15:15:00 MSPM7
07239300North Canadian River blw Weavers Ck nr Watonga, OK 15 15.61 2,450 7,220 2017-04-29 15:30:00 WATO2
07050700James River near Springfield, MO 12 18.33 21,900 62,000 2017-04-29 15:00:00 SGFM7
07053810Bull Creek near Walnut Shade, MO 9.5 15.22 20,500 32,200 2017-04-29 15:15:00 BBCM7
05599490BIG MUDDY RIVER AT RTE 127 AT MURPHYSBORO, IL 22 23.34 6,270 42,400 2017-04-29 14:30:00 MURI2
07037500St. Francis River near Patterson, MO 16 25.49 48,800 155,000 2017-04-29 16:00:00 PAZM7
07065200Jacks Fork near Mountain View, MO 11 17.86 18,100 43,740 2017-04-29 15:45:00 JKFM7
03352162MUD CREEK AT FISHERS, IN 7 7.69 507 1,720 2017-04-29 15:45:00 MCFI3
07036100St. Francis River near Saco, MO 21 27.79 62,400 161,000 2017-04-29 16:00:00 SAZM7
07189000Elk River near Tiff City, Mo 15 24.82 71,400 137,000 2017-04-29 15:30:00 TIFM7
07325800Cobb Creek near Eakly, OK 10 19.74 3,900 12,000 2017-04-29 15:30:00 EAKO2
06930000Big Piney River near Big Piney, MO 8.5 13.36 12,400 81,200 2017-04-29 15:00:00 PINM7
07228500Canadian River at Bridgeport, OK 14 15.92 12,800 150,000 2017-04-29 15:30:00 BRIO2
03369500VERNON FORK MUSCATATUCK RIVER AT VERNON, IN 17 18.83 15,600 56,800 2017-04-29 15:30:00 VRNI3
05587060ILLINOIS RIVER AT HARDIN, IL 25 25.32

 

  2017-04-29 14:30:00 HARI2
07020500Mississippi River at Chester, IL 27 27.84 438,000 1,060,000 2017-04-29 16:00:00 CHSI2
07020850Mississippi River at Cape Girardeau, MO 32 32.55

 

  2017-04-29 16:00:00 CPGM7
07052500James River at Galena, MO 15 17.86 26,900 85,100 2017-04-29 15:15:00 GLNM7
04067500MENOMINEE RIVER NEAR MC ALLISTER, WI 15 15.04 13,900 32,500 2017-04-29 15:15:00 MCAW3
03357500BIG WALNUT CREEK NEAR REELSVILLE, IN 12 13.01

 

30,700 2017-04-29 15:30:00 RLVI3
03362000YOUNGS CREEK NEAR EDINBURGH, IN 7 7.80 1,580 20,500 2017-04-29 15:15:00 AMTI3
03381495LITTLE WABASH RIVER AT MAIN ST AT CARMI, IL 27 27.60

 

  2017-04-29 14:30:00 CARI2
06917060Little Osage River at Horton, MO 41 42.52 4,060 48,400 2017-04-29 15:45:00 HTNM7
06918060Marmaton River near Nevada, MO 20 21.35 8,440 34,900 2017-04-29 15:45:00 NVDM7
06921720Big Creek near Blairstown, MO 20 24.05 8,440 24,400 2017-04-29 16:00:00 BLRM7
06928420Roubidoux Creek at Polla Rd bl Ft. Leonard Wood 7 8.82 6,300 38,600 2017-04-29 15:30:00 RBXM7
07014500Meramec River near Sullivan, MO 11 12.37 12,000 90,000 2017-04-29 15:30:00 SLLM7
07184000LIGHTNING C NR MCCUNE, KS 12 13.59 3,310 67,500 2017-04-29 15:45:00 MCNK1
07195500Illinois River near Watts, OK 13 18.46 21,600 110,000 2017-04-29 15:00:00 WTTO2
07196000Flint Creek near Kansas, OK 11 17.02 20,100 44,400 2017-04-29 15:30:00 KNSO2
07196090Illinois River at Chewey, OK 12 17.21 27,500 121,000 2017-04-29 15:15:00 CWYO2
07196500Illinois River near Tahlequah, OK 11 13.76 15,200 150,000 2017-04-29 15:00:00 TALO2
06930060Big Piney below Fort Leonard Wood, MO 8 10.36 8,900 66,000 2017-04-29 15:00:00 BIGM7
07050152Roaring River at Roaring River State Park 4.8 9.60 10,600 10,600 2017-04-29 15:30:00 RRSM7
07185765Spring River at Carthage, MO 10 11.76 8,180 40,600 2017-04-29 15:45:00 CHTM7
03360000EEL RIVER AT BOWLING GREEN, IN 15 15.57 5,670 46,000 2017-04-29 15:30:00 BOLI3
03373508BEAVER CREEK NEAR SHOALS, IN 7 7.14 907 3,350 2017-04-29 15:45:00 BCSI3
06910230Hinkson Creek at Columbia, MO 15 17.19 7,150 14,200 2017-04-29 15:00:00 TGRM7
06919900Sac River near Caplinger Mills, MO 16 17.94 10,600 61,500 2017-04-29 15:45:00 CMZM7
07052100Wilson Creek near Springfield, MO 7 8.59 3,200 6,710 2017-04-29 15:00:00 WCRM7
03325500MISSISSINEWA RIVER NEAR RIDGEVILLE, IN 11 11.26 Bkw 13,900 2017-04-29 15:30:00 RGVI3
03378635LITTLE WABASH RIVER NEAR EFFINGHAM, IL 16 16.12 4,290 31,500 2017-04-29 14:30:00 EFFI2
04073500FOX RIVER AT BERLIN, WI 13 13.00 3,050 6,900 2017-04-29 15:15:00 BERW3
06907700Blackwater River at Valley City, MO 22 22.75 5,770 66,500 2017-04-29 15:00:00 VLYM7
06908000Blackwater River at Blue Lick, MO 24 25.52 5,230 54,000 2017-04-29 15:45:00 BLVM7
06909950Petite Saline Creek at Hwy U nr Boonville, M0 16 17.22 1,550 7,000 2017-04-29 15:30:00 BONM7
06921600South Grand River at Urich, MO 24 25.40 7,410 29,200 2017-04-29 15:15:00 URHM7
06927000Maries River at Westphalia, MO 10 11.75 8,530 41,800 2017-04-29 15:00:00 WPHM7
07018500Big River at Byrnesville, MO 16 16.22 9,200 80,000 2017-04-29 15:45:00 BYRM7
07065495Jacks Fork at Alley Spring, MO 9 9.78 8,400 48,700 2017-04-29 15:30:00 ALYM7
07187600SPRING R NR BAXTER SPRINGS, KS 14 14.18 34,500 60,900 2017-04-29 16:00:00 BXTK1